Kokkari — C6WV2 — position and weather

sailwx.info

Track history (hours):
 
Tides and Currents Weather Stations Pressure Air Temp Water Temp Dewpoint Dewpoint Depression Visibility Wind Speed Wind Dir Waves Ship Positions

Kokkari

Last reported at 2017-Oct-19 15:41 UTC. Time now 2017-Oct-20 14:00 UTC.
Position N 04°40' W 002°38'.

Length 330 m; draft 14 m.

Type: Tanker. MMSI: 311001100.

Date/timePositionNaut miles runAvg speedWind from/ knotsBaromVisibWave heightAir tempDewpointWater temp
2017-Oct-19 15:41N 04°40' W 002°38'0 0.1
2017-Oct-19 15:29N 04°40' W 002°38'0 0.3
2017-Oct-19 14:59N 04°40' W 002°38'1 1.0
2017-Oct-19 14:29N 04°39' W 002°38'1 1.2
2017-Oct-19 13:59N 04°39' W 002°39'0 0.8
2017-Oct-19 13:29N 04°39' W 002°39'0 0.5
2017-Oct-19 12:59N 04°39' W 002°39'0 0.2
2017-Oct-19 12:29N 04°39' W 002°39'0 0.0
2017-Oct-19 11:59N 04°39' W 002°39'0 0.0
2017-Oct-19 11:29N 04°39' W 002°39'0 0.1
2017-Oct-19 10:59N 04°39' W 002°39'1 0.0
2017-Oct-17 13:48N 04°40' W 002°40'0 0.1
2017-Oct-17 13:27N 04°40' W 002°40'1 0.1
2017-Oct-17 08:10N 04°39' W 002°40'18 1.8
2017-Oct-16 21:46N 04°23' W 002°47'0 0.3
2017-Oct-16 21:30N 04°23' W 002°47'4 2.0
2017-Oct-16 19:14N 04°24' W 002°52'1 4.1
2017-Oct-16 18:57N 04°25' W 002°53'10 0.7
2017-Oct-16 05:44N 04°17' W 002°59'0 1.6
2017-Oct-16 05:30N 04°17' W 002°59'1 1.6
2017-Oct-16 04:59N 04°16' W 002°59'1 1.6
2017-Oct-16 04:30N 04°15' W 002°59'1 1.6
2017-Oct-16 03:59N 04°15' W 002°59'1 1.6
2017-Oct-16 03:30N 04°14' W 002°59'1 1.6
2017-Oct-16 03:00N 04°13' W 002°59'1 1.5
2017-Oct-16 02:29N 04°12' W 002°59'1 1.9
2017-Oct-16 01:59N 04°11' W 002°59'1 2.5
2017-Oct-16 01:30N 04°10' W 002°59'2 3.1
2017-Oct-16 01:00N 04°08' W 002°58'2 3.0
2017-Oct-16 00:29N 04°07' W 002°58'1 2.7
2017-Oct-16 00:00N 04°06' W 002°58'1 2.3
2017-Oct-15 23:29N 04°04' W 002°58'1 1.7
2017-Oct-15 23:00N 04°04' W 002°58'1 2.0
2017-Oct-15 22:30N 04°03' W 002°58'1 2.3
2017-Oct-15 22:00N 04°01' W 002°59'1 2.0
2017-Oct-15 21:29N 04°00' W 002°59'1 2.0
2017-Oct-15 20:58N 03°59' W 002°59'1 2.0
2017-Oct-15 20:29N 03°58' W 002°59'1 1.9
2017-Oct-15 20:00N 03°58' W 002°59'1 2.1
2017-Oct-15 19:29N 03°56' W 002°59'2 2.8
2017-Oct-15 18:51N 03°55' W 002°59'21 0.6
2017-Oct-14 08:07N 03°51' W 002°39'0 1.2
2017-Oct-14 07:58N 03°51' W 002°39'1 1.2
2017-Oct-14 07:29N 03°52' W 002°39'1 1.2
2017-Oct-14 06:27N 03°53' W 002°40'1 1.2
2017-Oct-14 06:00N 03°53' W 002°40'1 1.3
2017-Oct-14 04:52N 03°55' W 002°40'0 1.2
2017-Oct-14 04:30N 03°55' W 002°40'1 1.2
2017-Oct-14 03:59N 03°56' W 002°41'1 1.2
2017-Oct-14 03:29N 03°56' W 002°41'1 1.2
2017-Oct-14 02:59N 03°57' W 002°41'1 1.1
2017-Oct-14 02:29N 03°57' W 002°41'1 1.1
2017-Oct-14 01:58N 03°58' W 002°41'1 1.3
2017-Oct-14 01:30N 03°58' W 002°42'1 1.3
2017-Oct-14 00:59N 03°59' W 002°42'1 1.3
2017-Oct-14 00:29N 03°60' W 002°42'1 1.3
2017-Oct-14 00:00N 04°00' W 002°43'1 1.3
2017-Oct-13 23:30N 04°01' W 002°43'1 1.3
2017-Oct-13 23:00N 04°01' W 002°43'1 1.3
2017-Oct-13 22:29N 04°02' W 002°43'1 1.2
2017-Oct-13 21:59N 04°02' W 002°44'1 1.2
2017-Oct-13 21:29N 04°03' W 002°44'1 1.3
2017-Oct-13 20:59N 04°04' W 002°44'1 1.4
2017-Oct-13 20:30N 04°04' W 002°45'1 1.4
2017-Oct-13 20:00N 04°05' W 002°45'1 1.4
2017-Oct-13 19:30N 04°05' W 002°45'1 1.4
2017-Oct-13 19:00N 04°06' W 002°46'1 1.3
2017-Oct-13 18:29N 04°07' W 002°46'1 1.3
2017-Oct-13 17:59N 04°07' W 002°46'1 1.3
2017-Oct-13 17:30N 04°08' W 002°47'1 1.3
2017-Oct-13 17:00N 04°08' W 002°47'1 1.2
2017-Oct-13 16:29N 04°09' W 002°47'1 1.2
2017-Oct-13 16:00N 04°09' W 002°47'1 1.3
2017-Oct-13 15:30N 04°10' W 002°47'1 1.3
2017-Oct-13 15:00N 04°11' W 002°48'1 1.3
2017-Oct-13 14:29N 04°11' W 002°48'1 1.3
2017-Oct-13 13:59N 04°12' W 002°48'1 1.3
2017-Oct-13 13:31N 04°13' W 002°48'1 1.3
2017-Oct-13 13:00N 04°13' W 002°49'1 1.3
2017-Oct-13 12:30N 04°14' W 002°49'1 1.3
2017-Oct-13 11:59N 04°14' W 002°49'1 2.9
2017-Oct-13 11:29N 04°16' W 002°49'2 4.2
2017-Oct-13 10:58N 04°18' W 002°50'2 4.7
2017-Oct-13 10:30N 04°20' W 002°50'2 4.4
2017-Oct-13 09:59N 04°22' W 002°50'1 3.0
2017-Oct-13 09:29N 04°24' W 002°50'1 1.7
2017-Oct-13 08:59N 04°24' W 002°49'1 1.8
2017-Oct-13 08:29N 04°24' W 002°49'0 1.0
2017-Oct-13 08:00N 04°24' W 002°49'0 0.7
2017-Oct-13 07:30N 04°24' W 002°50'0 0.7
2017-Oct-13 07:00N 04°24' W 002°50'0 0.6
2017-Oct-13 06:29N 04°25' W 002°50'0 0.4
2017-Oct-13 05:59N 04°25' W 002°50'1 1.3
2017-Oct-13 05:30N 04°24' W 002°51'1 1.5
2017-Oct-13 05:00N 04°24' W 002°50'1 1.5
2017-Oct-13 04:30N 04°24' W 002°49'1 2.5
2017-Oct-13 03:59N 04°23' W 002°48'1 2.6
2017-Oct-13 03:29N 04°23' W 002°47'1 2.7
2017-Oct-13 02:59N 04°22' W 002°46'1 2.2
2017-Oct-13 02:31N 04°22' W 002°45'1 1.6
2017-Oct-13 02:00N 04°22' W 002°44'0 0.4
2017-Oct-13 01:30N 04°22' W 002°44'0 0.4
2017-Oct-13 00:59N 04°21' W 002°44'0 0.3
2017-Oct-13 00:29N 04°21' W 002°44'0 0.3
2017-Oct-12 23:59N 04°21' W 002°44'0 0.4
2017-Oct-12 23:30N 04°21' W 002°44'0 0.4
2017-Oct-12 23:00N 04°21' W 002°44'0 0.4
2017-Oct-12 22:29N 04°21' W 002°44'0 0.5
2017-Oct-12 21:59N 04°20' W 002°45'0 0.5
2017-Oct-12 21:30N 04°20' W 002°45'0 0.5
2017-Oct-12 21:00N 04°20' W 002°45'0 0.5
2017-Oct-12 20:29N 04°20' W 002°45'0 0.5
2017-Oct-12 19:59N 04°20' W 002°45'0 0.5
2017-Oct-12 19:29N 04°20' W 002°46'0 0.5
2017-Oct-12 19:00N 04°20' W 002°46'0 0.5
2017-Oct-12 18:30N 04°20' W 002°46'0 0.6
2017-Oct-12 18:00N 04°20' W 002°46'0 0.6
2017-Oct-12 17:29N 04°19' W 002°47'0 0.7
2017-Oct-12 16:59N 04°19' W 002°47'0 0.7
2017-Oct-12 16:31N 04°19' W 002°47'0 0.7
2017-Oct-12 16:00N 04°19' W 002°47'0 0.7
2017-Oct-12 15:30N 04°19' W 002°48'0 0.7
2017-Oct-12 14:59N 04°18' W 002°48'0 0.6
2017-Oct-12 14:29N 04°18' W 002°48'0 0.6
2017-Oct-12 13:59N 04°18' W 002°48'0 1.0
2017-Oct-12 13:30N 04°18' W 002°48'1 2.8
2017-Oct-12 13:00N 04°16' W 002°48'1 2.8
2017-Oct-12 12:29N 04°15' W 002°48'2 2.7
2017-Oct-12 11:55N 04°13' W 002°48'1 2.6
2017-Oct-12 11:31N 04°12' W 002°47'1 2.6
2017-Oct-12 11:00N 04°11' W 002°47'1 2.8
2017-Oct-12 10:29N 04°10' W 002°47'2 3.1
2017-Oct-12 09:59N 04°08' W 002°46'2 3.5
2017-Oct-12 09:30N 04°06' W 002°46'3 5.1
2017-Oct-12 09:00N 04°04' W 002°46'2 3.6
2017-Oct-12 08:30N 04°02' W 002°45'1 1.8
2017-Oct-12 08:00N 04°01' W 002°45'0 0.9
2017-Oct-12 07:31N 04°02' W 002°45'1 1.2
2017-Oct-12 07:00N 04°02' W 002°45'1 1.0
2017-Oct-12 06:26N 04°03' W 002°45'0 1.0
2017-Oct-12 05:59N 04°03' W 002°46'0 1.0
2017-Oct-12 05:29N 04°04' W 002°46'0 0.9
2017-Oct-12 04:59N 04°04' W 002°46'0 0.9
2017-Oct-12 04:30N 04°04' W 002°46'0 0.8
2017-Oct-12 04:00N 04°05' W 002°47'0 0.8
2017-Oct-12 03:29N 04°05' W 002°47'0 0.8
2017-Oct-12 03:00N 04°05' W 002°47'0 0.8
2017-Oct-12 02:30N 04°06' W 002°47'0 0.9
2017-Oct-12 01:56N 04°06' W 002°48'0 0.9
2017-Oct-12 01:30N 04°06' W 002°48'0 0.9
2017-Oct-12 01:00N 04°07' W 002°48'0 0.9
2017-Oct-12 00:29N 04°07' W 002°48'0 0.9
2017-Oct-11 23:59N 04°08' W 002°48'0 1.0
2017-Oct-11 23:30N 04°08' W 002°48'1 1.0
2017-Oct-11 23:00N 04°09' W 002°49'1 1.0
2017-Oct-11 22:29N 04°09' W 002°49'1 1.0
2017-Oct-11 21:59N 04°10' W 002°49'0 1.0
2017-Oct-11 21:31N 04°10' W 002°49'0 1.0
2017-Oct-11 21:00N 04°10' W 002°50'0 1.0
2017-Oct-11 20:30N 04°11' W 002°50'1 1.0
2017-Oct-11 20:00N 04°11' W 002°50'1 1.0
2017-Oct-11 19:29N 04°12' W 002°51'1 1.0
2017-Oct-11 18:59N 04°12' W 002°51'1 1.1
2017-Oct-11 18:30N 04°12' W 002°51'1 1.1
2017-Oct-11 18:00N 04°13' W 002°51'1 1.1
2017-Oct-11 17:29N 04°13' W 002°52'1 1.1
2017-Oct-11 16:59N 04°14' W 002°52'24 1.4
2017-Oct-11 00:00N 04°36' W 002°42'1 1.7
2017-Oct-10 23:29N 04°37' W 002°42'1 1.5
2017-Oct-10 22:59N 04°37' W 002°41'1 1.9
2017-Oct-10 22:29N 04°38' W 002°41'1 1.9
2017-Oct-10 22:00N 04°39' W 002°41'1 1.4
2017-Oct-10 21:29N 04°40' W 002°40'0 0.2
2017-Oct-10 21:00N 04°40' W 002°41'0 0.0
2017-Oct-10 20:30N 04°40' W 002°41'0 0.1
2017-Oct-10 20:00N 04°40' W 002°41'0 0.0
2017-Oct-10 19:30N 04°40' W 002°41'0 0.0
2017-Oct-10 19:00N 04°40' W 002°41'0 0.1
2017-Oct-10 18:27N 04°40' W 002°41'0 0.1
2017-Oct-10 18:00N 04°40' W 002°41'0 0.1
2017-Oct-10 17:30N 04°40' W 002°41'0 0.1
2017-Oct-10 17:00N 04°40' W 002°41'0 0.1
2017-Oct-10 16:30N 04°40' W 002°41'0 0.1
2017-Oct-10 16:00N 04°40' W 002°40'0 0.1
2017-Oct-10 15:30N 04°40' W 002°41'0 0.0
2017-Oct-10 15:00N 04°40' W 002°41'0 0.1
2017-Oct-10 14:00N 04°40' W 002°41'0 0.1
2017-Oct-10 13:30N 04°40' W 002°41'0 0.1
2017-Oct-10 13:00N 04°40' W 002°41'0 0.0
2017-Oct-10 12:30N 04°40' W 002°41'0 0.0
2017-Oct-10 12:00N 04°40' W 002°41'0 0.1
2017-Oct-10 11:30N 04°40' W 002°41'0 0.1
2017-Oct-10 11:00N 04°40' W 002°41'0 0.0
2017-Oct-10 10:30N 04°40' W 002°41'0 0.0
2017-Oct-10 10:00N 04°40' W 002°41'0 0.1
2017-Oct-10 09:30N 04°40' W 002°41'0 0.1
2017-Oct-10 09:00N 04°40' W 002°41'0 0.2
2017-Oct-10 08:30N 04°40' W 002°41'0 0.3
2017-Oct-10 07:59N 04°40' W 002°41'0 0.2
2017-Oct-10 07:29N 04°40' W 002°40'0 0.3
2017-Oct-10 06:59N 04°40' W 002°40'0 0.3
2017-Oct-10 06:29N 04°40' W 002°40'0 0.1
2017-Oct-10 05:59N 04°40' W 002°40'0 0.1
2017-Oct-10 05:29N 04°40' W 002°40'0 0.1
2017-Oct-10 04:59N 04°40' W 002°40'0 0.0
2017-Oct-10 04:29N 04°40' W 002°40'0 0.1
2017-Oct-10 03:59N 04°40' W 002°40'0 0.0
2017-Oct-10 03:29N 04°40' W 002°40'0 0.1
2017-Oct-10 02:59N 04°40' W 002°40'0 0.0
2017-Oct-10 02:29N 04°40' W 002°40'0 0.0
2017-Oct-10 01:59N 04°40' W 002°40'0 0.1
2017-Oct-10 01:29N 04°40' W 002°40'0 0.1
2017-Oct-10 00:59N 04°40' W 002°40'0 0.1
2017-Oct-10 00:29N 04°40' W 002°40'0 0.0
2017-Oct-09 23:59N 04°40' W 002°40'0 0.0
2017-Oct-09 23:29N 04°40' W 002°40'0 0.0
2017-Oct-09 22:59N 04°40' W 002°40'0 0.1
2017-Oct-09 22:29N 04°40' W 002°40'0 0.0
2017-Oct-09 21:59N 04°40' W 002°40'0 0.0
2017-Oct-09 21:29N 04°40' W 002°40'0 0.0
2017-Oct-09 20:59N 04°40' W 002°40'0 0.2
2017-Oct-09 20:29N 04°40' W 002°40'0 0.1
2017-Oct-09 19:59N 04°40' W 002°40'0 0.0
2017-Oct-09 19:29N 04°40' W 002°40'0 0.1
2017-Oct-09 18:59N 04°40' W 002°40'0 0.1
2017-Oct-09 18:29N 04°40' W 002°40'0 0.1
2017-Oct-09 17:59N 04°40' W 002°40'0 0.0
2017-Oct-09 17:29N 04°40' W 002°40'0 0.1
2017-Oct-09 16:59N 04°40' W 002°40'0 0.0
2017-Oct-09 16:29N 04°40' W 002°40'0 0.0
2017-Oct-09 15:59N 04°40' W 002°40'  
Track history (hours):
 
Tides and Currents Weather Stations Pressure Air Temp Water Temp Dewpoint Dewpoint Depression Visibility Wind Speed Wind Dir Waves Ship Positions

Kokkari

Last reported at 2017-Oct-19 15:41 UTC. Time now 2017-Oct-20 14:00 UTC.
Position N 04°40' W 002°38'.

Length 330 m; draft 14 m.

Type: Tanker. MMSI: 311001100.

Date/timePositionNaut miles runAvg speedWind from/ knotsBaromVisibWave heightAir tempDewpointWater temp
2017-Oct-19 15:41N 04°40' W 002°38'0 0.1
2017-Oct-19 15:29N 04°40' W 002°38'0 0.3
2017-Oct-19 14:59N 04°40' W 002°38'1 1.0
2017-Oct-19 14:29N 04°39' W 002°38'1 1.2
2017-Oct-19 13:59N 04°39' W 002°39'0 0.8
2017-Oct-19 13:29N 04°39' W 002°39'0 0.5
2017-Oct-19 12:59N 04°39' W 002°39'0 0.2
2017-Oct-19 12:29N 04°39' W 002°39'0 0.0
2017-Oct-19 11:59N 04°39' W 002°39'0 0.0
2017-Oct-19 11:29N 04°39' W 002°39'0 0.1
2017-Oct-19 10:59N 04°39' W 002°39'1 0.0
2017-Oct-17 13:48N 04°40' W 002°40'0 0.1
2017-Oct-17 13:27N 04°40' W 002°40'1 0.1
2017-Oct-17 08:10N 04°39' W 002°40'18 1.8
2017-Oct-16 21:46N 04°23' W 002°47'0 0.3
2017-Oct-16 21:30N 04°23' W 002°47'4 2.0
2017-Oct-16 19:14N 04°24' W 002°52'1 4.1
2017-Oct-16 18:57N 04°25' W 002°53'10 0.7
2017-Oct-16 05:44N 04°17' W 002°59'0 1.6
2017-Oct-16 05:30N 04°17' W 002°59'1 1.6
2017-Oct-16 04:59N 04°16' W 002°59'1 1.6
2017-Oct-16 04:30N 04°15' W 002°59'1 1.6
2017-Oct-16 03:59N 04°15' W 002°59'1 1.6
2017-Oct-16 03:30N 04°14' W 002°59'1 1.6
2017-Oct-16 03:00N 04°13' W 002°59'1 1.5
2017-Oct-16 02:29N 04°12' W 002°59'1 1.9
2017-Oct-16 01:59N 04°11' W 002°59'1 2.5
2017-Oct-16 01:30N 04°10' W 002°59'2 3.1
2017-Oct-16 01:00N 04°08' W 002°58'2 3.0
2017-Oct-16 00:29N 04°07' W 002°58'1 2.7
2017-Oct-16 00:00N 04°06' W 002°58'1 2.3
2017-Oct-15 23:29N 04°04' W 002°58'1 1.7
2017-Oct-15 23:00N 04°04' W 002°58'1 2.0
2017-Oct-15 22:30N 04°03' W 002°58'1 2.3
2017-Oct-15 22:00N 04°01' W 002°59'1 2.0
2017-Oct-15 21:29N 04°00' W 002°59'1 2.0
2017-Oct-15 20:58N 03°59' W 002°59'1 2.0
2017-Oct-15 20:29N 03°58' W 002°59'1 1.9
2017-Oct-15 20:00N 03°58' W 002°59'1 2.1
2017-Oct-15 19:29N 03°56' W 002°59'2 2.8
2017-Oct-15 18:51N 03°55' W 002°59'21 0.6
2017-Oct-14 08:07N 03°51' W 002°39'0 1.2
2017-Oct-14 07:58N 03°51' W 002°39'1 1.2
2017-Oct-14 07:29N 03°52' W 002°39'1 1.2
2017-Oct-14 06:27N 03°53' W 002°40'1 1.2
2017-Oct-14 06:00N 03°53' W 002°40'1 1.3
2017-Oct-14 04:52N 03°55' W 002°40'0 1.2
2017-Oct-14 04:30N 03°55' W 002°40'1 1.2
2017-Oct-14 03:59N 03°56' W 002°41'1 1.2
2017-Oct-14 03:29N 03°56' W 002°41'1 1.2
2017-Oct-14 02:59N 03°57' W 002°41'1 1.1
2017-Oct-14 02:29N 03°57' W 002°41'1 1.1
2017-Oct-14 01:58N 03°58' W 002°41'1 1.3
2017-Oct-14 01:30N 03°58' W 002°42'1 1.3
2017-Oct-14 00:59N 03°59' W 002°42'1 1.3
2017-Oct-14 00:29N 03°60' W 002°42'1 1.3
2017-Oct-14 00:00N 04°00' W 002°43'1 1.3
2017-Oct-13 23:30N 04°01' W 002°43'1 1.3
2017-Oct-13 23:00N 04°01' W 002°43'1 1.3
2017-Oct-13 22:29N 04°02' W 002°43'1 1.2
2017-Oct-13 21:59N 04°02' W 002°44'1 1.2
2017-Oct-13 21:29N 04°03' W 002°44'1 1.3
2017-Oct-13 20:59N 04°04' W 002°44'1 1.4
2017-Oct-13 20:30N 04°04' W 002°45'1 1.4
2017-Oct-13 20:00N 04°05' W 002°45'1 1.4
2017-Oct-13 19:30N 04°05' W 002°45'1 1.4
2017-Oct-13 19:00N 04°06' W 002°46'1 1.3
2017-Oct-13 18:29N 04°07' W 002°46'1 1.3
2017-Oct-13 17:59N 04°07' W 002°46'1 1.3
2017-Oct-13 17:30N 04°08' W 002°47'1 1.3
2017-Oct-13 17:00N 04°08' W 002°47'1 1.2
2017-Oct-13 16:29N 04°09' W 002°47'1 1.2
2017-Oct-13 16:00N 04°09' W 002°47'1 1.3
2017-Oct-13 15:30N 04°10' W 002°47'1 1.3
2017-Oct-13 15:00N 04°11' W 002°48'1 1.3
2017-Oct-13 14:29N 04°11' W 002°48'1 1.3
2017-Oct-13 13:59N 04°12' W 002°48'1 1.3
2017-Oct-13 13:31N 04°13' W 002°48'1 1.3
2017-Oct-13 13:00N 04°13' W 002°49'1 1.3
2017-Oct-13 12:30N 04°14' W 002°49'1 1.3
2017-Oct-13 11:59N 04°14' W 002°49'1 2.9
2017-Oct-13 11:29N 04°16' W 002°49'2 4.2
2017-Oct-13 10:58N 04°18' W 002°50'2 4.7
2017-Oct-13 10:30N 04°20' W 002°50'2 4.4
2017-Oct-13 09:59N 04°22' W 002°50'1 3.0
2017-Oct-13 09:29N 04°24' W 002°50'1 1.7
2017-Oct-13 08:59N 04°24' W 002°49'1 1.8
2017-Oct-13 08:29N 04°24' W 002°49'0 1.0
2017-Oct-13 08:00N 04°24' W 002°49'0 0.7
2017-Oct-13 07:30N 04°24' W 002°50'0 0.7
2017-Oct-13 07:00N 04°24' W 002°50'0 0.6
2017-Oct-13 06:29N 04°25' W 002°50'0 0.4
2017-Oct-13 05:59N 04°25' W 002°50'1 1.3
2017-Oct-13 05:30N 04°24' W 002°51'1 1.5
2017-Oct-13 05:00N 04°24' W 002°50'1 1.5
2017-Oct-13 04:30N 04°24' W 002°49'1 2.5
2017-Oct-13 03:59N 04°23' W 002°48'1 2.6
2017-Oct-13 03:29N 04°23' W 002°47'1 2.7
2017-Oct-13 02:59N 04°22' W 002°46'1 2.2
2017-Oct-13 02:31N 04°22' W 002°45'1 1.6
2017-Oct-13 02:00N 04°22' W 002°44'0 0.4
2017-Oct-13 01:30N 04°22' W 002°44'0 0.4
2017-Oct-13 00:59N 04°21' W 002°44'0 0.3
2017-Oct-13 00:29N 04°21' W 002°44'0 0.3
2017-Oct-12 23:59N 04°21' W 002°44'0 0.4
2017-Oct-12 23:30N 04°21' W 002°44'0 0.4
2017-Oct-12 23:00N 04°21' W 002°44'0 0.4
2017-Oct-12 22:29N 04°21' W 002°44'0 0.5
2017-Oct-12 21:59N 04°20' W 002°45'0 0.5
2017-Oct-12 21:30N 04°20' W 002°45'0 0.5
2017-Oct-12 21:00N 04°20' W 002°45'0 0.5
2017-Oct-12 20:29N 04°20' W 002°45'0 0.5
2017-Oct-12 19:59N 04°20' W 002°45'0 0.5
2017-Oct-12 19:29N 04°20' W 002°46'0 0.5
2017-Oct-12 19:00N 04°20' W 002°46'0 0.5
2017-Oct-12 18:30N 04°20' W 002°46'0 0.6
2017-Oct-12 18:00N 04°20' W 002°46'0 0.6
2017-Oct-12 17:29N 04°19' W 002°47'0 0.7
2017-Oct-12 16:59N 04°19' W 002°47'0 0.7
2017-Oct-12 16:31N 04°19' W 002°47'0 0.7
2017-Oct-12 16:00N 04°19' W 002°47'0 0.7
2017-Oct-12 15:30N 04°19' W 002°48'0 0.7
2017-Oct-12 14:59N 04°18' W 002°48'0 0.6
2017-Oct-12 14:29N 04°18' W 002°48'0 0.6
2017-Oct-12 13:59N 04°18' W 002°48'0 1.0
2017-Oct-12 13:30N 04°18' W 002°48'1 2.8
2017-Oct-12 13:00N 04°16' W 002°48'1 2.8
2017-Oct-12 12:29N 04°15' W 002°48'2 2.7
2017-Oct-12 11:55N 04°13' W 002°48'1 2.6
2017-Oct-12 11:31N 04°12' W 002°47'1 2.6
2017-Oct-12 11:00N 04°11' W 002°47'1 2.8
2017-Oct-12 10:29N 04°10' W 002°47'2 3.1
2017-Oct-12 09:59N 04°08' W 002°46'2 3.5
2017-Oct-12 09:30N 04°06' W 002°46'3 5.1
2017-Oct-12 09:00N 04°04' W 002°46'2 3.6
2017-Oct-12 08:30N 04°02' W 002°45'1 1.8
2017-Oct-12 08:00N 04°01' W 002°45'0 0.9
2017-Oct-12 07:31N 04°02' W 002°45'1 1.2
2017-Oct-12 07:00N 04°02' W 002°45'1 1.0
2017-Oct-12 06:26N 04°03' W 002°45'0 1.0
2017-Oct-12 05:59N 04°03' W 002°46'0 1.0
2017-Oct-12 05:29N 04°04' W 002°46'0 0.9
2017-Oct-12 04:59N 04°04' W 002°46'0 0.9
2017-Oct-12 04:30N 04°04' W 002°46'0 0.8
2017-Oct-12 04:00N 04°05' W 002°47'0 0.8
2017-Oct-12 03:29N 04°05' W 002°47'0 0.8
2017-Oct-12 03:00N 04°05' W 002°47'0 0.8
2017-Oct-12 02:30N 04°06' W 002°47'0 0.9
2017-Oct-12 01:56N 04°06' W 002°48'0 0.9
2017-Oct-12 01:30N 04°06' W 002°48'0 0.9
2017-Oct-12 01:00N 04°07' W 002°48'0 0.9
2017-Oct-12 00:29N 04°07' W 002°48'0 0.9
2017-Oct-11 23:59N 04°08' W 002°48'0 1.0
2017-Oct-11 23:30N 04°08' W 002°48'1 1.0
2017-Oct-11 23:00N 04°09' W 002°49'1 1.0
2017-Oct-11 22:29N 04°09' W 002°49'1 1.0
2017-Oct-11 21:59N 04°10' W 002°49'0 1.0
2017-Oct-11 21:31N 04°10' W 002°49'0 1.0
2017-Oct-11 21:00N 04°10' W 002°50'0 1.0
2017-Oct-11 20:30N 04°11' W 002°50'1 1.0
2017-Oct-11 20:00N 04°11' W 002°50'1 1.0
2017-Oct-11 19:29N 04°12' W 002°51'1 1.0
2017-Oct-11 18:59N 04°12' W 002°51'1 1.1
2017-Oct-11 18:30N 04°12' W 002°51'1 1.1
2017-Oct-11 18:00N 04°13' W 002°51'1 1.1
2017-Oct-11 17:29N 04°13' W 002°52'1 1.1
2017-Oct-11 16:59N 04°14' W 002°52'24 1.4
2017-Oct-11 00:00N 04°36' W 002°42'1 1.7
2017-Oct-10 23:29N 04°37' W 002°42'1 1.5
2017-Oct-10 22:59N 04°37' W 002°41'1 1.9
2017-Oct-10 22:29N 04°38' W 002°41'1 1.9
2017-Oct-10 22:00N 04°39' W 002°41'1 1.4
2017-Oct-10 21:29N 04°40' W 002°40'0 0.2
2017-Oct-10 21:00N 04°40' W 002°41'0 0.0
2017-Oct-10 20:30N 04°40' W 002°41'0 0.1
2017-Oct-10 20:00N 04°40' W 002°41'0 0.0
2017-Oct-10 19:30N 04°40' W 002°41'0 0.0
2017-Oct-10 19:00N 04°40' W 002°41'0 0.1
2017-Oct-10 18:27N 04°40' W 002°41'0 0.1
2017-Oct-10 18:00N 04°40' W 002°41'0 0.1
2017-Oct-10 17:30N 04°40' W 002°41'0 0.1
2017-Oct-10 17:00N 04°40' W 002°41'0 0.1
2017-Oct-10 16:30N 04°40' W 002°41'0 0.1
2017-Oct-10 16:00N 04°40' W 002°40'0 0.1
2017-Oct-10 15:30N 04°40' W 002°41'0 0.0
2017-Oct-10 15:00N 04°40' W 002°41'0 0.1
2017-Oct-10 14:00N 04°40' W 002°41'0 0.1
2017-Oct-10 13:30N 04°40' W 002°41'0 0.1
2017-Oct-10 13:00N 04°40' W 002°41'0 0.0
2017-Oct-10 12:30N 04°40' W 002°41'0 0.0
2017-Oct-10 12:00N 04°40' W 002°41'0 0.1
2017-Oct-10 11:30N 04°40' W 002°41'0 0.1
2017-Oct-10 11:00N 04°40' W 002°41'0 0.0
2017-Oct-10 10:30N 04°40' W 002°41'0 0.0
2017-Oct-10 10:00N 04°40' W 002°41'0 0.1
2017-Oct-10 09:30N 04°40' W 002°41'0 0.1
2017-Oct-10 09:00N 04°40' W 002°41'0 0.2
2017-Oct-10 08:30N 04°40' W 002°41'0 0.3
2017-Oct-10 07:59N 04°40' W 002°41'0 0.2
2017-Oct-10 07:29N 04°40' W 002°40'0 0.3
2017-Oct-10 06:59N 04°40' W 002°40'0 0.3
2017-Oct-10 06:29N 04°40' W 002°40'0 0.1
2017-Oct-10 05:59N 04°40' W 002°40'0 0.1
2017-Oct-10 05:29N 04°40' W 002°40'0 0.1
2017-Oct-10 04:59N 04°40' W 002°40'0 0.0
2017-Oct-10 04:29N 04°40' W 002°40'0 0.1
2017-Oct-10 03:59N 04°40' W 002°40'0 0.0
2017-Oct-10 03:29N 04°40' W 002°40'0 0.1
2017-Oct-10 02:59N 04°40' W 002°40'0 0.0
2017-Oct-10 02:29N 04°40' W 002°40'0 0.0
2017-Oct-10 01:59N 04°40' W 002°40'0 0.1
2017-Oct-10 01:29N 04°40' W 002°40'0 0.1
2017-Oct-10 00:59N 04°40' W 002°40'0 0.1
2017-Oct-10 00:29N 04°40' W 002°40'0 0.0
2017-Oct-09 23:59N 04°40' W 002°40'0 0.0
2017-Oct-09 23:29N 04°40' W 002°40'0 0.0
2017-Oct-09 22:59N 04°40' W 002°40'0 0.1
2017-Oct-09 22:29N 04°40' W 002°40'0 0.0
2017-Oct-09 21:59N 04°40' W 002°40'0 0.0
2017-Oct-09 21:29N 04°40' W 002°40'0 0.0
2017-Oct-09 20:59N 04°40' W 002°40'0 0.2
2017-Oct-09 20:29N 04°40' W 002°40'0 0.1
2017-Oct-09 19:59N 04°40' W 002°40'0 0.0
2017-Oct-09 19:29N 04°40' W 002°40'0 0.1
2017-Oct-09 18:59N 04°40' W 002°40'0 0.1
2017-Oct-09 18:29N 04°40' W 002°40'0 0.1
2017-Oct-09 17:59N 04°40' W 002°40'0 0.0
2017-Oct-09 17:29N 04°40' W 002°40'0 0.1
2017-Oct-09 16:59N 04°40' W 002°40'0 0.0
2017-Oct-09 16:29N 04°40' W 002°40'0 0.0
2017-Oct-09 15:59N 04°40' W 002°40'  

Dump ship's entire track history